sensor_id;sensor_type;location;lat;lon;timestamp;pressure;altitude;pressure_sealevel;temperature;humidity
21779;BME280;11050;52.222;20.916;2023-04-21T00:02:06;100542.16;;;10.94;66.67
21779;BME280;11050;52.222;20.916;2023-04-21T00:04:32;100551.50;;;10.93;66.89
21779;BME280;11050;52.222;20.916;2023-04-21T00:06:57;100548.31;;;10.84;66.88
21779;BME280;11050;52.222;20.916;2023-04-21T00:09:28;100529.00;;;10.79;67.08
21779;BME280;11050;52.222;20.916;2023-04-21T00:11:54;100548.09;;;10.86;67.34
21779;BME280;11050;52.222;20.916;2023-04-21T00:14:19;100545.84;;;10.83;67.17
21779;BME280;11050;52.222;20.916;2023-04-21T00:16:45;100548.00;;;10.81;67.28
21779;BME280;11050;52.222;20.916;2023-04-21T00:19:11;100541.91;;;10.79;67.40
21779;BME280;11050;52.222;20.916;2023-04-21T00:21:38;100535.50;;;10.73;67.62
21779;BME280;11050;52.222;20.916;2023-04-21T00:24:05;100533.25;;;10.70;67.97
21779;BME280;11050;52.222;20.916;2023-04-21T00:26:31;100525.53;;;10.67;68.04
21779;BME280;11050;52.222;20.916;2023-04-21T00:28:56;100541.50;;;10.70;67.91
21779;BME280;11050;52.222;20.916;2023-04-21T00:31:22;100529.00;;;10.63;68.60
21779;BME280;11050;52.222;20.916;2023-04-21T00:33:48;100539.16;;;10.62;68.50
21779;BME280;11050;52.222;20.916;2023-04-21T00:36:14;100543.47;;;10.58;68.92
21779;BME280;11050;52.222;20.916;2023-04-21T00:38:39;100542.09;;;10.56;69.26
21779;BME280;11050;52.222;20.916;2023-04-21T00:41:05;100541.75;;;10.52;69.25
21779;BME280;11050;52.222;20.916;2023-04-21T00:43:31;100535.16;;;10.53;68.75
21779;BME280;11050;52.222;20.916;2023-04-21T00:45:57;100535.66;;;10.50;69.13
21779;BME280;11050;52.222;20.916;2023-04-21T00:48:22;100537.22;;;10.46;69.38
21779;BME280;11050;52.222;20.916;2023-04-21T00:50:48;100531.16;;;10.44;69.67
21779;BME280;11050;52.222;20.916;2023-04-21T00:53:15;100535.22;;;10.41;69.78
21779;BME280;11050;52.222;20.916;2023-04-21T00:55:41;100532.72;;;10.40;70.38
21779;BME280;11050;52.222;20.916;2023-04-21T00:58:07;100534.03;;;10.37;69.74
21779;BME280;11050;52.222;20.916;2023-04-21T01:00:32;100530.63;;;10.30;70.27
21779;BME280;11050;52.222;20.916;2023-04-21T01:03:00;100525.25;;;10.24;70.64
21779;BME280;11050;52.222;20.916;2023-04-21T01:05:26;100540.69;;;10.25;70.23
21779;BME280;11050;52.222;20.916;2023-04-21T01:07:52;100529.34;;;10.21;70.96
21779;BME280;11050;52.222;20.916;2023-04-21T01:10:18;100529.84;;;10.18;71.29
21779;BME280;11050;52.222;20.916;2023-04-21T01:12:47;100518.44;;;10.10;71.24
21779;BME280;11050;52.222;20.916;2023-04-21T01:15:16;100520.66;;;10.13;72.03
21779;BME280;11050;52.222;20.916;2023-04-21T01:17:42;100529.16;;;10.11;71.77
21779;BME280;11050;52.222;20.916;2023-04-21T01:20:13;100525.94;;;10.03;72.10
21779;BME280;11050;52.222;20.916;2023-04-21T01:22:41;100521.91;;;9.94;72.86
21779;BME280;11050;52.222;20.916;2023-04-21T01:25:08;100535.75;;;9.99;72.72
21779;BME280;11050;52.222;20.916;2023-04-21T01:27:34;100526.34;;;9.95;72.95
21779;BME280;11050;52.222;20.916;2023-04-21T01:30:00;100524.31;;;9.90;73.43
21779;BME280;11050;52.222;20.916;2023-04-21T01:32:28;100522.91;;;9.88;73.51
21779;BME280;11050;52.222;20.916;2023-04-21T01:34:57;100522.91;;;9.88;74.24
21779;BME280;11050;52.222;20.916;2023-04-21T01:37:30;100531.00;;;9.83;74.32
21779;BME280;11050;52.222;20.916;2023-04-21T01:40:02;100534.59;;;9.83;74.09
21779;BME280;11050;52.222;20.916;2023-04-21T01:42:31;100536.16;;;9.79;74.36
21779;BME280;11050;52.222;20.916;2023-04-21T01:44:57;100529.81;;;9.79;74.43
21779;BME280;11050;52.222;20.916;2023-04-21T01:47:24;100521.50;;;9.74;74.92
21779;BME280;11050;52.222;20.916;2023-04-21T01:49:50;100532.13;;;9.70;74.53
21779;BME280;11050;52.222;20.916;2023-04-21T01:52:16;100528.19;;;9.66;75.01
21779;BME280;11050;52.222;20.916;2023-04-21T01:54:42;100528.91;;;9.62;75.66
21779;BME280;11050;52.222;20.916;2023-04-21T01:57:07;100527.16;;;9.55;75.70
21779;BME280;11050;52.222;20.916;2023-04-21T01:59:33;100532.41;;;9.57;75.94
21779;BME280;11050;52.222;20.916;2023-04-21T02:01:59;100538.59;;;9.52;76.03
21779;BME280;11050;52.222;20.916;2023-04-21T02:04:25;100523.69;;;9.48;76.06
21779;BME280;11050;52.222;20.916;2023-04-21T02:06:50;100526.44;;;9.48;76.23
21779;BME280;11050;52.222;20.916;2023-04-21T02:09:16;100527.19;;;9.44;76.48
21779;BME280;11050;52.222;20.916;2023-04-21T02:11:42;100520.75;;;9.38;76.32
21779;BME280;11050;52.222;20.916;2023-04-21T02:14:08;100522.91;;;9.36;76.99
21779;BME280;11050;52.222;20.916;2023-04-21T02:16:34;100529.78;;;9.39;76.31
21779;BME280;11050;52.222;20.916;2023-04-21T02:18:59;100531.13;;;9.36;76.82
21779;BME280;11050;52.222;20.916;2023-04-21T02:21:26;100528.84;;;9.33;76.91
21779;BME280;11050;52.222;20.916;2023-04-21T02:23:52;100531.00;;;9.31;76.62
21779;BME280;11050;52.222;20.916;2023-04-21T02:26:18;100532.94;;;9.31;76.76
21779;BME280;11050;52.222;20.916;2023-04-21T02:28:45;100514.34;;;9.21;76.70
21779;BME280;11050;52.222;20.916;2023-04-21T02:31:11;100534.13;;;9.23;77.06
21779;BME280;11050;52.222;20.916;2023-04-21T02:33:37;100527.44;;;9.19;77.58
21779;BME280;11050;52.222;20.916;2023-04-21T02:36:03;100524.22;;;9.11;77.31
21779;BME280;11050;52.222;20.916;2023-04-21T02:38:29;100521.84;;;9.14;77.89
21779;BME280;11050;52.222;20.916;2023-04-21T02:40:56;100532.09;;;9.07;78.73
21779;BME280;11050;52.222;20.916;2023-04-21T02:43:22;100530.44;;;9.06;78.35
21779;BME280;11050;52.222;20.916;2023-04-21T02:45:49;100528.75;;;9.05;78.43
21779;BME280;11050;52.222;20.916;2023-04-21T02:48:14;100525.91;;;9.00;78.80
21779;BME280;11050;52.222;20.916;2023-04-21T02:50:42;100521.97;;;8.96;79.44
21779;BME280;11050;52.222;20.916;2023-04-21T02:53:07;100530.19;;;8.96;79.24
21779;BME280;11050;52.222;20.916;2023-04-21T02:55:33;100514.69;;;8.90;79.83
21779;BME280;11050;52.222;20.916;2023-04-21T02:57:59;100521.50;;;8.88;80.31
21779;BME280;11050;52.222;20.916;2023-04-21T03:00:24;100521.34;;;8.83;80.78
21779;BME280;11050;52.222;20.916;2023-04-21T03:02:50;100520.16;;;8.79;80.99
21779;BME280;11050;52.222;20.916;2023-04-21T03:05:17;100519.09;;;8.80;80.77
21779;BME280;11050;52.222;20.916;2023-04-21T03:07:46;100519.78;;;8.75;80.88
21779;BME280;11050;52.222;20.916;2023-04-21T03:10:12;100515.41;;;8.74;81.64
21779;BME280;11050;52.222;20.916;2023-04-21T03:12:38;100519.44;;;8.72;81.37
21779;BME280;11050;52.222;20.916;2023-04-21T03:15:05;100519.09;;;8.68;81.45
21779;BME280;11050;52.222;20.916;2023-04-21T03:17:31;100518.72;;;8.65;81.70
21779;BME280;11050;52.222;20.916;2023-04-21T03:19:56;100528.84;;;8.64;81.43
21779;BME280;11050;52.222;20.916;2023-04-21T03:22:22;100520.63;;;8.64;81.88
21779;BME280;11050;52.222;20.916;2023-04-21T03:24:48;100519.22;;;8.62;81.61
21779;BME280;11050;52.222;20.916;2023-04-21T03:27:13;100512.03;;;8.60;81.49
21779;BME280;11050;52.222;20.916;2023-04-21T03:29:39;100520.50;;;8.59;81.86
21779;BME280;11050;52.222;20.916;2023-04-21T03:32:05;100524.28;;;8.58;81.75
21779;BME280;11050;52.222;20.916;2023-04-21T03:34:30;100520.94;;;8.56;81.62
21779;BME280;11050;52.222;20.916;2023-04-21T03:36:56;100520.75;;;8.57;81.41
21779;BME280;11050;52.222;20.916;2023-04-21T03:39:22;100515.28;;;8.57;81.89
21779;BME280;11050;52.222;20.916;2023-04-21T03:41:47;100528.72;;;8.59;81.25
21779;BME280;11050;52.222;20.916;2023-04-21T03:44:13;100519.91;;;8.57;81.94
21779;BME280;11050;52.222;20.916;2023-04-21T03:46:39;100519.66;;;8.58;81.80
21779;BME280;11050;52.222;20.916;2023-04-21T03:49:05;100528.72;;;8.59;82.24
21779;BME280;11050;52.222;20.916;2023-04-21T03:51:30;100520.00;;;8.62;81.82
21779;BME280;11050;52.222;20.916;2023-04-21T03:53:57;100531.81;;;8.63;82.06
21779;BME280;11050;52.222;20.916;2023-04-21T03:56:23;100530.53;;;8.65;81.66
21779;BME280;11050;52.222;20.916;2023-04-21T03:58:49;100531.81;;;8.63;81.30
21779;BME280;11050;52.222;20.916;2023-04-21T04:01:15;100540.41;;;8.66;81.99
21779;BME280;11050;52.222;20.916;2023-04-21T04:03:40;100541.00;;;8.68;81.53
21779;BME280;11050;52.222;20.916;2023-04-21T04:06:06;100534.69;;;8.68;81.95
21779;BME280;11050;52.222;20.916;2023-04-21T04:08:32;100536.81;;;8.66;82.06
21779;BME280;11050;52.222;20.916;2023-04-21T04:10:58;100547.09;;;8.70;82.12
21779;BME280;11050;52.222;20.916;2023-04-21T04:13:24;100538.38;;;8.73;81.92
21779;BME280;11050;52.222;20.916;2023-04-21T04:15:51;100543.66;;;8.75;81.12
21779;BME280;11050;52.222;20.916;2023-04-21T04:18:17;100542.91;;;8.79;81.41
21779;BME280;11050;52.222;20.916;2023-04-21T04:20:43;100550.69;;;8.82;80.56
21779;BME280;11050;52.222;20.916;2023-04-21T04:23:09;100547.94;;;8.82;80.00
21779;BME280;11050;52.222;20.916;2023-04-21T04:25:34;100543.41;;;8.88;79.21
21779;BME280;11050;52.222;20.916;2023-04-21T04:28:01;100555.94;;;8.95;79.25
21779;BME280;11050;52.222;20.916;2023-04-21T04:30:27;100553.91;;;9.02;78.69
21779;BME280;11050;52.222;20.916;2023-04-21T04:32:54;100553.56;;;9.10;78.08
21779;BME280;11050;52.222;20.916;2023-04-21T04:35:22;100550.81;;;9.10;77.06
21779;BME280;11050;52.222;20.916;2023-04-21T04:37:48;100556.06;;;9.23;76.39
21779;BME280;11050;52.222;20.916;2023-04-21T04:40:14;100561.91;;;9.27;75.05
21779;BME280;11050;52.222;20.916;2023-04-21T04:42:41;100563.56;;;9.39;74.57
21779;BME280;11050;52.222;20.916;2023-04-21T04:45:07;100565.34;;;9.45;73.88
21779;BME280;11050;52.222;20.916;2023-04-21T04:47:34;100564.72;;;9.55;73.46
21779;BME280;11050;52.222;20.916;2023-04-21T04:50:00;100560.09;;;9.55;72.88
21779;BME280;11050;52.222;20.916;2023-04-21T04:52:26;100554.59;;;9.67;72.38
21779;BME280;11050;52.222;20.916;2023-04-21T04:54:51;100558.63;;;9.76;70.89
21779;BME280;11050;52.222;20.916;2023-04-21T04:57:17;100566.34;;;9.79;70.14
21779;BME280;11050;52.222;20.916;2023-04-21T04:59:43;100572.41;;;9.93;69.57
21779;BME280;11050;52.222;20.916;2023-04-21T05:02:09;100562.97;;;10.00;68.96
21779;BME280;11050;52.222;20.916;2023-04-21T05:04:35;100559.38;;;10.11;68.78
21779;BME280;11050;52.222;20.916;2023-04-21T05:07:01;100555.41;;;10.19;67.68
21779;BME280;11050;52.222;20.916;2023-04-21T05:09:27;100557.41;;;10.23;67.31
21779;BME280;11050;52.222;20.916;2023-04-21T05:11:53;100567.59;;;10.39;67.23
21779;BME280;11050;52.222;20.916;2023-04-21T05:14:18;100563.63;;;10.47;65.41
21779;BME280;11050;52.222;20.916;2023-04-21T05:16:45;100564.28;;;10.54;66.24
21779;BME280;11050;52.222;20.916;2023-04-21T05:19:10;100570.38;;;10.56;65.16
21779;BME280;11050;52.222;20.916;2023-04-21T05:21:36;100569.13;;;10.64;64.46
21779;BME280;11050;52.222;20.916;2023-04-21T05:24:02;100561.81;;;10.69;63.83
21779;BME280;11050;52.222;20.916;2023-04-21T05:26:31;100566.16;;;10.82;63.56
21779;BME280;11050;52.222;20.916;2023-04-21T05:28:57;100559.69;;;10.88;62.38
21779;BME280;11050;52.222;20.916;2023-04-21T05:31:24;100550.34;;;10.89;62.93
21779;BME280;11050;52.222;20.916;2023-04-21T05:33:50;100566.56;;;11.07;62.73
21779;BME280;11050;52.222;20.916;2023-04-21T05:36:16;100574.16;;;11.16;61.44
21779;BME280;11050;52.222;20.916;2023-04-21T05:38:42;100567.66;;;11.22;61.16
21779;BME280;11050;52.222;20.916;2023-04-21T05:41:08;100573.06;;;11.34;61.13
21779;BME280;11050;52.222;20.916;2023-04-21T05:43:34;100572.13;;;11.45;60.17
21779;BME280;11050;52.222;20.916;2023-04-21T05:46:08;100565.09;;;11.54;59.63
21779;BME280;11050;52.222;20.916;2023-04-21T05:48:35;100568.84;;;11.65;58.22
21779;BME280;11050;52.222;20.916;2023-04-21T05:51:12;100577.25;;;11.75;58.53
21779;BME280;11050;52.222;20.916;2023-04-21T05:53:41;100573.56;;;11.86;58.58
21779;BME280;11050;52.222;20.916;2023-04-21T05:56:12;100564.34;;;11.97;57.55
21779;BME280;11050;52.222;20.916;2023-04-21T05:58:38;100570.03;;;12.12;57.66
21779;BME280;11050;52.222;20.916;2023-04-21T06:01:04;100566.81;;;12.20;56.82
21779;BME280;11050;52.222;20.916;2023-04-21T06:03:34;100565.84;;;12.31;55.57
21779;BME280;11050;52.222;20.916;2023-04-21T06:06:02;100565.69;;;12.43;55.40
21779;BME280;11050;52.222;20.916;2023-04-21T06:08:28;100563.34;;;12.56;54.83
21779;BME280;11050;52.222;20.916;2023-04-21T06:10:54;100562.03;;;12.64;53.40
21779;BME280;11050;52.222;20.916;2023-04-21T06:13:20;100569.06;;;12.76;53.42
21779;BME280;11050;52.222;20.916;2023-04-21T06:15:46;100558.41;;;12.90;52.91
21779;BME280;11050;52.222;20.916;2023-04-21T06:18:11;100559.06;;;12.97;52.32
21779;BME280;11050;52.222;20.916;2023-04-21T06:20:37;100571.03;;;13.07;51.31
21779;BME280;11050;52.222;20.916;2023-04-21T06:23:05;100564.19;;;13.15;50.62
21779;BME280;11050;52.222;20.916;2023-04-21T06:25:31;100560.69;;;13.29;50.07
21779;BME280;11050;52.222;20.916;2023-04-21T06:27:57;100572.38;;;13.42;49.42
21779;BME280;11050;52.222;20.916;2023-04-21T06:30:23;100556.69;;;13.52;48.89
21779;BME280;11050;52.222;20.916;2023-04-21T06:32:48;100567.53;;;13.64;49.19
21779;BME280;11050;52.222;20.916;2023-04-21T06:35:14;100565.97;;;13.78;47.93
21779;BME280;11050;52.222;20.916;2023-04-21T06:37:40;100558.03;;;13.91;47.97
21779;BME280;11050;52.222;20.916;2023-04-21T06:40:07;100558.63;;;14.03;47.29
21779;BME280;11050;52.222;20.916;2023-04-21T06:42:33;100561.44;;;14.18;46.78
21779;BME280;11050;52.222;20.916;2023-04-21T06:44:59;100551.78;;;14.21;46.41
21779;BME280;11050;52.222;20.916;2023-04-21T06:47:25;100553.22;;;14.34;45.71
21779;BME280;11050;52.222;20.916;2023-04-21T06:49:51;100555.50;;;14.52;43.87
21779;BME280;11050;52.222;20.916;2023-04-21T06:52:16;100559.66;;;14.59;44.27
21779;BME280;11050;52.222;20.916;2023-04-21T06:54:42;100562.97;;;14.71;44.04
21779;BME280;11050;52.222;20.916;2023-04-21T06:57:08;100551.38;;;14.79;43.61
21779;BME280;11050;52.222;20.916;2023-04-21T06:59:34;100555.81;;;14.90;43.34
21779;BME280;11050;52.222;20.916;2023-04-21T07:01:59;100550.00;;;15.07;42.92
21779;BME280;11050;52.222;20.916;2023-04-21T07:04:25;100557.75;;;15.25;43.23
21779;BME280;11050;52.222;20.916;2023-04-21T07:06:56;100549.16;;;15.32;41.95
21779;BME280;11050;52.222;20.916;2023-04-21T07:09:22;100552.19;;;15.40;41.46
21779;BME280;11050;52.222;20.916;2023-04-21T07:11:48;100554.69;;;15.52;40.85
21779;BME280;11050;52.222;20.916;2023-04-21T07:14:14;100556.88;;;15.60;40.70
21779;BME280;11050;52.222;20.916;2023-04-21T07:16:40;100561.84;;;15.73;39.87
21779;BME280;11050;52.222;20.916;2023-04-21T07:19:06;100537.50;;;15.65;39.46
21779;BME280;11050;52.222;20.916;2023-04-21T07:21:32;100559.00;;;15.88;38.52
21779;BME280;11050;52.222;20.916;2023-04-21T07:24:01;100557.59;;;16.00;39.28
21779;BME280;11050;52.222;20.916;2023-04-21T07:26:27;100560.06;;;16.12;38.90
21779;BME280;11050;52.222;20.916;2023-04-21T07:28:53;100550.56;;;16.23;38.64
21779;BME280;11050;52.222;20.916;2023-04-21T07:31:26;100554.59;;;16.46;38.15
21779;BME280;11050;52.222;20.916;2023-04-21T07:33:51;100554.25;;;16.62;37.51
21779;BME280;11050;52.222;20.916;2023-04-21T07:36:17;100564.75;;;16.70;37.67
21779;BME280;11050;52.222;20.916;2023-04-21T07:38:43;100568.31;;;16.71;36.70
21779;BME280;11050;52.222;20.916;2023-04-21T07:41:10;100555.25;;;16.76;36.91
21779;BME280;11050;52.222;20.916;2023-04-21T07:43:37;100556.88;;;16.82;36.14
21779;BME280;11050;52.222;20.916;2023-04-21T07:46:03;100551.78;;;16.94;36.27
21779;BME280;11050;52.222;20.916;2023-04-21T07:48:29;100546.94;;;17.10;37.05
21779;BME280;11050;52.222;20.916;2023-04-21T07:50:55;100550.41;;;17.26;36.65
21779;BME280;11050;52.222;20.916;2023-04-21T07:53:23;100547.84;;;17.29;36.30
21779;BME280;11050;52.222;20.916;2023-04-21T07:55:49;100544.22;;;17.34;35.29
21779;BME280;11050;52.222;20.916;2023-04-21T07:58:15;100543.44;;;17.28;34.53
21779;BME280;11050;52.222;20.916;2023-04-21T08:00:42;100544.38;;;17.42;34.84
21779;BME280;11050;52.222;20.916;2023-04-21T08:03:07;100547.94;;;17.53;33.71
21779;BME280;11050;52.222;20.916;2023-04-21T08:05:33;100540.72;;;17.52;34.03
21779;BME280;11050;52.222;20.916;2023-04-21T08:07:59;100543.06;;;17.68;34.19
21779;BME280;11050;52.222;20.916;2023-04-21T08:10:25;100545.38;;;17.85;34.27
21779;BME280;11050;52.222;20.916;2023-04-21T08:12:51;100524.28;;;18.02;35.11
21779;BME280;11050;52.222;20.916;2023-04-21T08:15:17;100533.25;;;18.18;33.59
21779;BME280;11050;52.222;20.916;2023-04-21T08:17:43;100528.09;;;18.30;33.25
21779;BME280;11050;52.222;20.916;2023-04-21T08:20:09;100533.16;;;18.47;32.57
21779;BME280;11050;52.222;20.916;2023-04-21T08:22:35;100525.78;;;18.56;31.47
21779;BME280;11050;52.222;20.916;2023-04-21T08:25:02;100531.13;;;18.71;30.62
21779;BME280;11050;52.222;20.916;2023-04-21T08:27:28;100536.34;;;18.77;30.50
21779;BME280;11050;52.222;20.916;2023-04-21T08:29:54;100526.31;;;18.76;30.66
21779;BME280;11050;52.222;20.916;2023-04-21T08:32:20;100527.53;;;18.89;31.68
21779;BME280;11050;52.222;20.916;2023-04-21T08:34:54;100528.25;;;18.95;31.18
21779;BME280;11050;52.222;20.916;2023-04-21T08:37:20;100525.28;;;19.05;30.31
21779;BME280;11050;52.222;20.916;2023-04-21T08:39:47;100529.53;;;19.16;29.67
21779;BME280;11050;52.222;20.916;2023-04-21T08:42:18;100517.91;;;19.27;29.85
21779;BME280;11050;52.222;20.916;2023-04-21T08:44:45;100520.88;;;19.36;29.27
21779;BME280;11050;52.222;20.916;2023-04-21T08:47:13;100521.84;;;19.26;28.74
21779;BME280;11050;52.222;20.916;2023-04-21T08:49:41;100528.03;;;19.42;28.47
21779;BME280;11050;52.222;20.916;2023-04-21T08:52:07;100515.94;;;19.46;26.46
21779;BME280;11050;52.222;20.916;2023-04-21T08:54:34;100527.91;;;19.47;27.49
21779;BME280;11050;52.222;20.916;2023-04-21T08:57:03;100523.78;;;19.44;28.15
21779;BME280;11050;52.222;20.916;2023-04-21T08:59:29;100517.97;;;19.41;26.88
21779;BME280;11050;52.222;20.916;2023-04-21T09:04:37;100521.19;;;19.34;26.76
21779;BME280;11050;52.222;20.916;2023-04-21T09:07:03;100520.47;;;19.42;27.19
21779;BME280;11050;52.222;20.916;2023-04-21T09:09:29;100522.97;;;19.57;27.32
21779;BME280;11050;52.222;20.916;2023-04-21T09:11:58;100514.06;;;19.55;27.61
21779;BME280;11050;52.222;20.916;2023-04-21T09:14:33;100506.66;;;19.51;27.24
21779;BME280;11050;52.222;20.916;2023-04-21T09:17:02;100507.41;;;19.70;27.63
21779;BME280;11050;52.222;20.916;2023-04-21T09:19:32;100499.84;;;19.70;27.40
21779;BME280;11050;52.222;20.916;2023-04-21T09:22:00;100497.16;;;19.79;27.04
21779;BME280;11050;52.222;20.916;2023-04-21T09:24:26;100505.63;;;19.88;27.04
21779;BME280;11050;52.222;20.916;2023-04-21T09:26:53;100503.78;;;19.97;26.25
21779;BME280;11050;52.222;20.916;2023-04-21T09:29:25;100502.63;;;20.11;26.38
21779;BME280;11050;52.222;20.916;2023-04-21T09:31:52;100505.00;;;20.18;26.05
21779;BME280;11050;52.222;20.916;2023-04-21T09:34:20;100509.16;;;20.20;25.96
21779;BME280;11050;52.222;20.916;2023-04-21T09:36:47;100509.53;;;20.27;26.02
21779;BME280;11050;52.222;20.916;2023-04-21T09:39:13;100499.53;;;20.26;27.68
21779;BME280;11050;52.222;20.916;2023-04-21T09:41:39;100497.72;;;20.44;27.22
21779;BME280;11050;52.222;20.916;2023-04-21T09:44:05;100500.38;;;20.62;27.04
21779;BME280;11050;52.222;20.916;2023-04-21T09:46:35;100486.00;;;20.55;26.03
21779;BME280;11050;52.222;20.916;2023-04-21T09:49:02;100489.81;;;20.59;26.08
21779;BME280;11050;52.222;20.916;2023-04-21T09:51:30;100487.09;;;20.68;26.03
21779;BME280;11050;52.222;20.916;2023-04-21T09:54:06;100493.63;;;20.86;26.72
21779;BME280;11050;52.222;20.916;2023-04-21T09:56:39;100478.28;;;20.97;25.73
21779;BME280;11050;52.222;20.916;2023-04-21T09:59:06;100486.88;;;21.00;25.66
21779;BME280;11050;52.222;20.916;2023-04-21T10:01:35;100472.44;;;21.07;25.33
21779;BME280;11050;52.222;20.916;2023-04-21T10:04:03;100484.38;;;21.21;25.46
21779;BME280;11050;52.222;20.916;2023-04-21T10:06:29;100481.44;;;21.26;25.20
21779;BME280;11050;52.222;20.916;2023-04-21T10:08:56;100481.34;;;21.39;25.93
21779;BME280;11050;52.222;20.916;2023-04-21T10:11:23;100473.31;;;21.38;24.39
21779;BME280;11050;52.222;20.916;2023-04-21T10:13:49;100476.97;;;21.47;24.42
21779;BME280;11050;52.222;20.916;2023-04-21T10:16:17;100475.84;;;21.56;24.67
21779;BME280;11050;52.222;20.916;2023-04-21T10:18:44;100464.84;;;21.68;24.32
21779;BME280;11050;52.222;20.916;2023-04-21T10:21:17;100471.47;;;21.73;23.85
21779;BME280;11050;52.222;20.916;2023-04-21T10:23:46;100461.75;;;21.70;23.47
21779;BME280;11050;52.222;20.916;2023-04-21T10:26:24;100445.84;;;21.88;23.99
21779;BME280;11050;52.222;20.916;2023-04-21T10:29:05;100452.84;;;22.07;24.02
21779;BME280;11050;52.222;20.916;2023-04-21T10:31:51;100451.00;;;21.94;23.11
21779;BME280;11050;52.222;20.916;2023-04-21T10:39:42;100446.94;;;22.17;24.21
21779;BME280;11050;52.222;20.916;2023-04-21T10:42:25;100443.31;;;22.42;23.45
21779;BME280;11050;52.222;20.916;2023-04-21T10:47:46;100428.31;;;22.90;23.91
21779;BME280;11050;52.222;20.916;2023-04-21T10:53:08;100446.34;;;23.43;21.97
21779;BME280;11050;52.222;20.916;2023-04-21T10:55:36;100433.94;;;23.44;22.33
21779;BME280;11050;52.222;20.916;2023-04-21T10:58:05;100432.59;;;23.50;20.01
21779;BME280;11050;52.222;20.916;2023-04-21T11:00:35;100425.25;;;23.67;21.11
21779;BME280;11050;52.222;20.916;2023-04-21T11:03:05;100421.16;;;24.22;21.44
21779;BME280;11050;52.222;20.916;2023-04-21T11:05:40;100418.56;;;24.59;20.78
21779;BME280;11050;52.222;20.916;2023-04-21T11:08:12;100416.81;;;24.87;20.02
21779;BME280;11050;52.222;20.916;2023-04-21T11:10:56;100415.25;;;25.22;19.63
21779;BME280;11050;52.222;20.916;2023-04-21T11:13:27;100408.44;;;25.68;18.67
21779;BME280;11050;52.222;20.916;2023-04-21T11:16:05;100411.78;;;26.21;19.18
21779;BME280;11050;52.222;20.916;2023-04-21T11:18:41;100414.00;;;26.68;18.56
21779;BME280;11050;52.222;20.916;2023-04-21T11:21:11;100401.38;;;27.05;17.29
21779;BME280;11050;52.222;20.916;2023-04-21T11:23:56;100400.78;;;27.27;17.70
21779;BME280;11050;52.222;20.916;2023-04-21T11:26:37;100404.94;;;27.45;16.61
21779;BME280;11050;52.222;20.916;2023-04-21T11:29:08;100382.66;;;27.28;16.35
21779;BME280;11050;52.222;20.916;2023-04-21T11:31:35;100387.41;;;27.55;16.72
21779;BME280;11050;52.222;20.916;2023-04-21T11:34:03;100395.09;;;28.21;16.47
21779;BME280;11050;52.222;20.916;2023-04-21T11:36:32;100387.38;;;28.75;16.35
21779;BME280;11050;52.222;20.916;2023-04-21T11:39:03;100399.69;;;29.24;15.05
21779;BME280;11050;52.222;20.916;2023-04-21T11:41:29;100378.94;;;29.39;14.90
21779;BME280;11050;52.222;20.916;2023-04-21T11:43:54;100389.91;;;29.89;15.41
21779;BME280;11050;52.222;20.916;2023-04-21T11:46:26;100383.03;;;30.17;15.02
21779;BME280;11050;52.222;20.916;2023-04-21T11:49:03;100383.59;;;30.55;14.65
21779;BME280;11050;52.222;20.916;2023-04-21T11:51:38;100389.63;;;30.84;13.60
21779;BME280;11050;52.222;20.916;2023-04-21T11:54:10;100393.13;;;31.03;13.91
21779;BME280;11050;52.222;20.916;2023-04-21T11:56:40;100382.81;;;31.28;13.94
21779;BME280;11050;52.222;20.916;2023-04-21T11:59:14;100379.75;;;31.95;13.00
21779;BME280;11050;52.222;20.916;2023-04-21T12:01:45;100373.88;;;32.24;13.10
21779;BME280;11050;52.222;20.916;2023-04-21T12:04:17;100378.81;;;32.41;12.87
21779;BME280;11050;52.222;20.916;2023-04-21T12:06:45;100377.88;;;32.13;12.03
21779;BME280;11050;52.222;20.916;2023-04-21T12:09:19;100370.13;;;32.10;12.86
21779;BME280;11050;52.222;20.916;2023-04-21T12:11:50;100367.50;;;32.45;12.21
21779;BME280;11050;52.222;20.916;2023-04-21T12:14:22;100371.56;;;32.51;12.15
21779;BME280;11050;52.222;20.916;2023-04-21T12:16:54;100368.22;;;32.35;12.25
21779;BME280;11050;52.222;20.916;2023-04-21T12:19:38;100363.19;;;32.90;12.54
21779;BME280;11050;52.222;20.916;2023-04-21T12:22:09;100363.69;;;33.30;12.21
21779;BME280;11050;52.222;20.916;2023-04-21T12:24:36;100355.56;;;33.85;11.59
21779;BME280;11050;52.222;20.916;2023-04-21T12:27:02;100341.25;;;34.17;11.21
21779;BME280;11050;52.222;20.916;2023-04-21T12:29:29;100353.47;;;34.21;10.75
21779;BME280;11050;52.222;20.916;2023-04-21T12:31:54;100351.50;;;34.00;10.52
21779;BME280;11050;52.222;20.916;2023-04-21T12:34:20;100358.00;;;34.08;10.94
21779;BME280;11050;52.222;20.916;2023-04-21T12:36:46;100349.72;;;34.52;11.26
21779;BME280;11050;52.222;20.916;2023-04-21T12:39:12;100357.81;;;34.71;11.05
21779;BME280;11050;52.222;20.916;2023-04-21T12:41:39;100352.56;;;34.45;11.26
21779;BME280;11050;52.222;20.916;2023-04-21T12:44:05;100345.69;;;34.46;10.97
21779;BME280;11050;52.222;20.916;2023-04-21T12:46:31;100356.56;;;34.72;11.39
21779;BME280;11050;52.222;20.916;2023-04-21T12:48:57;100345.81;;;35.01;10.73
21779;BME280;11050;52.222;20.916;2023-04-21T12:51:23;100342.06;;;35.14;10.68
21779;BME280;11050;52.222;20.916;2023-04-21T12:53:49;100330.66;;;35.11;10.06
21779;BME280;11050;52.222;20.916;2023-04-21T12:56:15;100334.19;;;35.29;10.29
21779;BME280;11050;52.222;20.916;2023-04-21T12:58:41;100343.22;;;35.72;10.51